Time;durP1;ratioP1;P1;durP2;ratioP2;P2;SDS_P1;SDS_P2;PMS_P1;PMS_P2;Temp;Humidity;BMP_temperature;BMP_pressure;BME280_temperature;BME280_humidity;BME280_pressure;Samples;Min_cycle;Max_cycle;Signal;HPM_P1;HPM_P2
2021/07/24 00:01:13;;;;;;;7.45;4.50;;;17.40;81.00;;;;;;3560619;40;20579;-63
2021/07/24 00:03:39;;;;;;;7.22;4.53;;;17.30;80.80;;;;;;3560179;40;20045;-63
2021/07/24 00:06:06;;;;;;;6.70;4.18;;;17.30;80.90;;;;;;3560079;40;20485;-63
2021/07/24 00:08:32;;;;;;;6.32;4.35;;;17.30;81.30;;;;;;3560391;40;20040;-63
2021/07/24 00:11:02;;;;;;;7.50;4.80;;;17.20;81.80;;;;;;3559768;40;20038;-63
2021/07/24 00:13:27;;;;;;;6.35;4.60;;;17.20;81.90;;;;;;3559009;40;20037;-63
2021/07/24 00:15:53;;;;;;;5.93;4.30;;;17.20;81.90;;;;;;3559150;40;20029;-63
2021/07/24 00:18:18;;;;;;;6.90;4.35;;;17.20;82.00;;;;;;3560368;40;20021;-66
2021/07/24 00:20:44;;;;;;;5.60;4.28;;;17.10;82.00;;;;;;3559766;40;20818;-66
2021/07/24 00:23:11;;;;;;;7.25;4.05;;;17.10;81.90;;;;;;3560789;40;20029;-63
2021/07/24 00:25:39;;;;;;;7.82;4.43;;;17.10;81.80;;;;;;3560344;40;20017;-65
2021/07/24 00:28:05;;;;;;;5.80;4.20;;;17.00;82.00;;;;;;3559688;40;20033;-65
2021/07/24 00:30:30;;;;;;;5.80;4.40;;;17.00;82.30;;;;;;3559567;40;20644;-64
2021/07/24 00:33:00;;;;;;;6.68;4.53;;;17.00;82.50;;;;;;3558316;40;20038;-63
2021/07/24 00:35:27;;;;;;;5.47;4.30;;;17.00;82.50;;;;;;3559069;40;20041;-63
2021/07/24 00:37:52;;;;;;;6.95;4.47;;;16.90;82.50;;;;;;3560244;40;20026;-63
2021/07/24 00:40:21;;;;;;;5.95;4.38;;;16.90;82.00;;;;;;3559528;40;20036;-63
2021/07/24 00:42:51;;;;;;;6.72;4.80;;;16.90;81.80;;;;;;3561305;40;20021;-63
2021/07/24 00:45:20;;;;;;;6.82;4.63;;;16.90;82.00;;;;;;3558686;40;20073;-63
2021/07/24 00:47:50;;;;;;;8.60;5.07;;;16.80;82.40;;;;;;3561697;40;20122;-63
2021/07/24 00:50:50;;;;;;;5.57;4.75;;;16.80;82.50;;;;;;3549290;40;20441;-63
2021/07/24 00:53:23;;;;;;;6.07;4.25;;;16.70;82.20;;;;;;3560382;40;20280;-63
2021/07/24 00:55:53;;;;;;;5.53;4.43;;;16.70;82.50;;;;;;3561394;40;20033;-63
2021/07/24 00:58:30;;;;;;;6.97;4.60;;;16.60;82.50;;;;;;3561798;40;20406;-63
2021/07/24 01:00:57;;;;;;;7.35;5.10;;;16.60;82.80;;;;;;3563789;40;20052;-62
2021/07/24 01:03:23;;;;;;;6.38;4.80;;;16.60;82.80;;;;;;3560512;40;20025;-63
2021/07/24 01:05:52;;;;;;;6.88;4.60;;;16.60;82.80;;;;;;3561836;40;20048;-63
2021/07/24 01:08:19;;;;;;;6.07;4.15;;;16.50;83.40;;;;;;3561786;40;20045;-62
2021/07/24 01:10:47;;;;;;;6.85;5.10;;;16.50;83.60;;;;;;3559980;40;20034;-62
2021/07/24 01:13:16;;;;;;;6.00;5.40;;;16.50;83.60;;;;;;3561682;40;20037;-63
2021/07/24 01:15:50;;;;;;;6.25;4.82;;;16.50;83.60;;;;;;3560758;40;20026;-63
2021/07/24 01:18:20;;;;;;;7.60;4.75;;;16.50;83.40;;;;;;3558290;40;20124;-63
2021/07/24 01:20:46;;;;;;;6.22;4.53;;;16.50;83.10;;;;;;3559947;40;20671;-63
2021/07/24 01:23:15;;;;;;;7.47;5.32;;;16.50;83.10;;;;;;3560707;40;20044;-61
2021/07/24 01:25:47;;;;;;;6.47;4.72;;;16.40;83.00;;;;;;3560343;40;20084;-63
2021/07/24 01:28:21;;;;;;;6.90;4.78;;;16.40;83.60;;;;;;3559143;40;20044;-63
2021/07/24 01:30:49;;;;;;;7.10;4.20;;;16.30;83.90;;;;;;3567177;40;20034;-63
2021/07/24 01:33:15;;;;;;;6.10;4.70;;;16.30;83.90;;;;;;3560341;40;20029;-63
2021/07/24 01:35:48;;;;;;;6.93;4.95;;;16.30;84.00;;;;;;3559262;40;20029;-62
2021/07/24 01:38:16;;;;;;;7.18;5.13;;;16.30;84.20;;;;;;3560122;40;20037;-62
2021/07/24 01:40:46;;;;;;;9.05;5.35;;;16.30;84.20;;;;;;3558963;40;20034;-63
2021/07/24 01:43:12;;;;;;;7.72;5.10;;;16.30;84.10;;;;;;3561341;40;20288;-63
2021/07/24 01:45:41;;;;;;;8.10;5.05;;;16.20;84.30;;;;;;3559942;40;20442;-66
2021/07/24 01:48:53;;;;;;;7.43;5.20;;;16.20;84.60;;;;;;3561665;40;20063;-63
2021/07/24 01:53:46;;;;;;;6.38;5.18;;;16.20;84.30;;;;;;3560895;40;20126;-62
2021/07/24 01:56:15;;;;;;;7.43;5.25;;;16.20;84.20;;;;;;3561686;40;20119;-62
2021/07/24 01:58:41;;;;;;;8.13;5.35;;;16.20;84.40;;;;;;3560821;40;20045;-63
2021/07/24 02:01:17;;;;;;;7.00;5.40;;;16.20;84.40;;;;;;3559821;40;20029;-63
2021/07/24 02:03:44;;;;;;;6.65;5.20;;;16.10;84.60;;;;;;3551494;40;20081;-63
2021/07/24 02:06:28;;;;;;;9.88;4.90;;;16.10;84.70;;;;;;3559769;40;20041;-63
2021/07/24 02:09:29;;;;;;;8.43;4.95;;;16.10;84.40;;;;;;3531812;40;20057;-62
2021/07/24 02:12:10;;;;;;;5.95;4.75;;;16.10;84.20;;;;;;3555517;40;20400;-63
2021/07/24 02:14:45;;;;;;;8.15;5.32;;;16.10;84.30;;;;;;3559987;40;20034;-63
2021/07/24 02:17:18;;;;;;;7.93;5.55;;;16.00;84.40;;;;;;3557348;40;20046;-62
2021/07/24 02:19:44;;;;;;;7.55;5.47;;;16.00;84.50;;;;;;3561326;40;20107;-63
2021/07/24 02:22:10;;;;;;;7.85;4.88;;;15.90;84.50;;;;;;3559363;40;20053;-64
2021/07/24 02:24:46;;;;;;;8.10;5.20;;;15.90;85.00;;;;;;3559507;40;20049;-63
2021/07/24 02:27:12;;;;;;;6.53;4.78;;;15.90;85.30;;;;;;3561001;40;20049;-63
2021/07/24 02:29:42;;;;;;;7.53;5.28;;;15.80;85.40;;;;;;3560676;40;20053;-63
2021/07/24 02:32:09;;;;;;;7.97;4.90;;;15.90;85.50;;;;;;3559762;40;20046;-63
2021/07/24 02:34:35;;;;;;;6.75;4.70;;;15.90;85.30;;;;;;3560602;40;20084;-63
2021/07/24 02:37:01;;;;;;;7.38;5.00;;;15.80;85.00;;;;;;3561256;40;20033;-63
2021/07/24 02:39:27;;;;;;;8.23;5.10;;;15.80;85.20;;;;;;3559490;40;20037;-63
2021/07/24 02:41:53;;;;;;;8.23;5.72;;;15.70;85.60;;;;;;3559806;40;20073;-62
2021/07/24 02:44:19;;;;;;;6.82;5.47;;;15.80;85.80;;;;;;3559944;40;20151;-63
2021/07/24 02:46:46;;;;;;;7.50;5.78;;;15.80;86.00;;;;;;3560606;40;20045;-63
2021/07/24 02:49:17;;;;;;;8.57;5.38;;;15.70;85.80;;;;;;3559599;40;20037;-63
2021/07/24 02:51:46;;;;;;;6.60;5.10;;;15.70;85.50;;;;;;3559540;40;20048;-63
2021/07/24 02:54:15;;;;;;;8.30;5.57;;;15.70;85.70;;;;;;3559153;40;20026;-65
2021/07/24 02:56:45;;;;;;;6.65;5.93;;;15.60;85.90;;;;;;3559804;40;20043;-65
2021/07/24 02:59:11;;;;;;;7.38;4.85;;;15.60;86.20;;;;;;3559434;40;20033;-65
2021/07/24 03:01:37;;;;;;;7.32;5.32;;;15.70;86.30;;;;;;3560302;40;20060;-65
2021/07/24 03:04:03;;;;;;;6.80;5.50;;;15.60;86.10;;;;;;3559001;40;20073;-65
2021/07/24 03:06:29;;;;;;;8.95;6.07;;;15.60;85.90;;;;;;3560930;40;20134;-65
2021/07/24 03:08:54;;;;;;;7.25;4.80;;;15.60;86.20;;;;;;3560719;40;20492;-65
2021/07/24 03:11:20;;;;;;;8.13;5.55;;;15.60;86.50;;;;;;3560647;40;20037;-65
2021/07/24 03:13:47;;;;;;;6.85;5.72;;;15.60;86.60;;;;;;3558755;40;20494;-64
2021/07/24 03:16:12;;;;;;;8.18;5.20;;;15.60;86.60;;;;;;3560258;40;20044;-65
2021/07/24 03:18:38;;;;;;;7.22;5.78;;;15.60;86.70;;;;;;3559342;40;20411;-67
2021/07/24 03:21:03;;;;;;;7.07;5.65;;;15.60;86.60;;;;;;3560809;40;20029;-65
2021/07/24 03:23:29;;;;;;;7.47;5.32;;;15.60;86.60;;;;;;3550367;40;20025;-65
2021/07/24 03:25:55;;;;;;;7.07;5.18;;;15.60;86.60;;;;;;3561121;40;20044;-65
2021/07/24 03:28:20;;;;;;;10.43;6.07;;;15.60;86.50;;;;;;3560574;40;20049;-65
2021/07/24 03:30:46;;;;;;;8.27;6.65;;;15.60;86.70;;;;;;3559806;40;20032;-65
2021/07/24 03:33:12;;;;;;;9.32;5.97;;;15.60;86.60;;;;;;3560253;40;20026;-65
2021/07/24 03:35:37;;;;;;;6.75;5.80;;;15.60;86.80;;;;;;3550661;40;20037;-65
2021/07/24 03:38:04;;;;;;;8.77;6.63;;;15.60;87.20;;;;;;3560378;40;20097;-65
2021/07/24 03:40:31;;;;;;;9.00;6.68;;;15.60;87.40;;;;;;3560508;40;20299;-65
2021/07/24 03:42:57;;;;;;;7.97;5.60;;;15.70;87.60;;;;;;3560661;40;20314;-65
2021/07/24 03:45:22;;;;;;;9.15;6.38;;;15.70;88.10;;;;;;3560556;40;20038;-64
2021/07/24 03:47:48;;;;;;;8.00;6.20;;;15.70;88.30;;;;;;3558702;40;20365;-64
2021/07/24 03:50:14;;;;;;;9.25;6.20;;;15.80;88.10;;;;;;3559291;40;20029;-64
2021/07/24 03:52:39;;;;;;;8.40;5.88;;;15.80;87.60;;;;;;3560542;40;20085;-64
2021/07/24 03:55:05;;;;;;;8.80;5.75;;;15.80;87.40;;;;;;3551307;40;20026;-64
2021/07/24 03:57:31;;;;;;;6.57;5.35;;;15.80;87.50;;;;;;3560927;40;20040;-65
2021/07/24 04:00:00;;;;;;;6.93;5.80;;;15.80;87.00;;;;;;3559563;40;20038;-64
2021/07/24 04:02:27;;;;;;;9.23;5.82;;;15.90;86.70;;;;;;3561261;40;20032;-64
2021/07/24 04:04:53;;;;;;;8.93;6.18;;;15.90;86.70;;;;;;3560655;40;20021;-64
2021/07/24 04:07:22;;;;;;;8.00;5.60;;;15.90;86.50;;;;;;3561136;40;20608;-66
2021/07/24 04:09:48;;;;;;;7.25;5.30;;;15.90;86.50;;;;;;3560897;40;20033;-65
2021/07/24 04:12:13;;;;;;;7.35;6.03;;;15.90;86.60;;;;;;3560449;40;20070;-64
2021/07/24 04:14:40;;;;;;;7.10;5.60;;;15.90;86.80;;;;;;3560332;40;20103;-64
2021/07/24 04:17:07;;;;;;;7.95;5.68;;;16.00;86.60;;;;;;3561676;40;20034;-64
2021/07/24 04:19:33;;;;;;;6.97;5.20;;;16.00;86.50;;;;;;3561935;40;20030;-64
2021/07/24 04:21:59;;;;;;;9.88;6.30;;;16.00;86.50;;;;;;3561741;40;20033;-64
2021/07/24 04:24:25;;;;;;;8.38;5.70;;;16.00;86.50;;;;;;3561107;40;20047;-65
2021/07/24 04:26:50;;;;;;;7.47;5.82;;;16.00;86.70;;;;;;3561736;40;20036;-64
2021/07/24 04:29:16;;;;;;;9.75;5.43;;;16.00;86.70;;;;;;3559672;40;20044;-64
2021/07/24 04:31:42;;;;;;;8.45;6.10;;;16.10;86.70;;;;;;3561912;40;20037;-65
2021/07/24 04:34:07;;;;;;;10.68;6.13;;;16.10;86.90;;;;;;3561398;40;20037;-64
2021/07/24 04:36:33;;;;;;;8.70;6.60;;;16.10;87.20;;;;;;3561025;40;20033;-64
2021/07/24 04:38:59;;;;;;;8.30;6.18;;;16.10;87.50;;;;;;3560845;40;20053;-64
2021/07/24 04:41:25;;;;;;;8.13;6.75;;;16.10;87.80;;;;;;3560040;40;20142;-63
2021/07/24 04:43:50;;;;;;;12.35;8.02;;;16.20;88.10;;;;;;3561394;40;20104;-64
2021/07/24 04:46:16;;;;;;;11.77;8.57;;;16.30;88.40;;;;;;3560101;40;20525;-65
2021/07/24 04:48:42;;;;;;;18.98;12.93;;;16.40;88.60;;;;;;3552311;40;20045;-64
2021/07/24 04:51:08;;;;;;;14.77;10.82;;;16.40;89.90;;;;;;3551893;40;20044;-64
2021/07/24 04:53:34;;;;;;;13.07;10.10;;;16.50;89.70;;;;;;3561104;40;20045;-64
2021/07/24 04:56:08;;;;;;;14.35;10.02;;;16.60;89.30;;;;;;3561892;40;20049;-64
2021/07/24 04:58:34;;;;;;;14.88;10.18;;;16.70;89.20;;;;;;3561955;40;20041;-63
2021/07/24 05:01:00;;;;;;;13.15;9.68;;;16.80;88.90;;;;;;3560121;40;20052;-64
2021/07/24 05:03:26;;;;;;;14.93;9.70;;;16.90;88.70;;;;;;3562023;40;20033;-64
2021/07/24 05:05:53;;;;;;;14.23;9.73;;;17.00;88.60;;;;;;3560969;40;20033;-63
2021/07/24 05:08:21;;;;;;;13.13;9.90;;;17.10;88.70;;;;;;3560229;40;20036;-65
2021/07/24 05:10:47;;;;;;;17.23;11.90;;;17.20;88.60;;;;;;3560810;40;20115;-66
2021/07/24 05:13:12;;;;;;;13.57;10.57;;;17.30;88.60;;;;;;3561222;40;20061;-63
2021/07/24 05:15:38;;;;;;;13.02;10.27;;;17.40;88.40;;;;;;3560897;40;20403;-64
2021/07/24 05:18:05;;;;;;;16.23;12.07;;;17.50;88.50;;;;;;3560837;40;20095;-63
2021/07/24 05:20:30;;;;;;;18.20;10.73;;;17.50;88.50;;;;;;3560936;40;20670;-64
2021/07/24 05:22:57;;;;;;;14.93;10.75;;;17.60;88.30;;;;;;3559259;40;20107;-63
2021/07/24 05:25:23;;;;;;;15.90;10.82;;;17.70;88.20;;;;;;3560712;40;20157;-63
2021/07/24 05:27:49;;;;;;;17.33;11.15;;;17.80;88.20;;;;;;3560613;40;20029;-63
2021/07/24 05:30:15;;;;;;;16.45;11.48;;;18.00;88.20;;;;;;3560281;40;20044;-63
2021/07/24 05:32:43;;;;;;;16.90;11.07;;;18.10;88.10;;;;;;3561308;40;20123;-64
2021/07/24 05:35:10;;;;;;;15.13;11.40;;;18.20;88.00;;;;;;3560706;40;20521;-63
2021/07/24 05:37:36;;;;;;;16.25;11.82;;;18.30;87.80;;;;;;3559750;40;20070;-64
2021/07/24 05:40:02;;;;;;;15.38;11.77;;;18.40;87.50;;;;;;3560257;40;20032;-63
2021/07/24 05:42:28;;;;;;;16.30;12.40;;;18.50;87.40;;;;;;3561662;40;20698;-64
2021/07/24 05:44:53;;;;;;;16.55;11.30;;;18.60;87.40;;;;;;3560283;40;20096;-61
2021/07/24 05:47:19;;;;;;;16.05;12.13;;;18.70;87.20;;;;;;3560327;40;20036;-61
2021/07/24 05:49:45;;;;;;;17.27;13.15;;;18.80;87.10;;;;;;3559165;40;20782;-61
2021/07/24 05:52:11;;;;;;;20.48;13.27;;;18.90;87.00;;;;;;3559956;40;20041;-61
2021/07/24 05:54:38;;;;;;;14.60;12.25;;;19.00;86.80;;;;;;3559639;40;20074;-61
2021/07/24 05:57:05;;;;;;;16.25;12.77;;;19.10;87.10;;;;;;3560189;40;20033;-61
2021/07/24 05:59:31;;;;;;;17.92;13.57;;;19.20;86.20;;;;;;3560316;40;20040;-62
2021/07/24 06:01:57;;;;;;;19.17;13.65;;;19.30;85.80;;;;;;3561978;40;20034;-61
2021/07/24 06:04:23;;;;;;;17.17;13.10;;;19.40;85.60;;;;;;3562442;40;20323;-61
2021/07/24 06:06:49;;;;;;;19.42;13.88;;;19.50;85.60;;;;;;3562165;40;20026;-62
2021/07/24 06:09:14;;;;;;;18.98;14.15;;;19.60;85.00;;;;;;3562656;40;20029;-62
2021/07/24 06:11:40;;;;;;;19.63;13.38;;;19.80;84.40;;;;;;3560926;40;20170;-61
2021/07/24 06:14:06;;;;;;;19.05;13.73;;;19.90;84.60;;;;;;3560846;40;20338;-62
2021/07/24 06:16:31;;;;;;;16.98;13.15;;;20.00;83.90;;;;;;3562146;40;20040;-61
2021/07/24 06:19:00;;;;;;;18.00;14.60;;;20.10;81.00;;;;;;3562141;40;20434;-61
2021/07/24 06:21:26;;;;;;;17.27;13.13;;;20.30;79.30;;;;;;3561999;40;20041;-61
2021/07/24 06:23:51;;;;;;;18.00;14.65;;;20.40;81.10;;;;;;3562219;40;20036;-62
2021/07/24 06:26:17;;;;;;;17.58;13.68;;;20.50;79.60;;;;;;3562640;40;20287;-61
2021/07/24 06:28:43;;;;;;;19.40;13.90;;;20.60;80.00;;;;;;3562253;40;20041;-61
2021/07/24 06:31:09;;;;;;;18.77;14.73;;;20.70;80.30;;;;;;3561461;40;20153;-64
2021/07/24 06:33:34;;;;;;;17.30;13.85;;;20.80;79.50;;;;;;3561605;40;20044;-64
2021/07/24 06:36:00;;;;;;;16.10;13.27;;;20.90;79.80;;;;;;3561027;40;20348;-64
2021/07/24 06:38:27;;;;;;;19.05;13.20;;;21.00;80.00;;;;;;3561937;40;20516;-64
2021/07/24 06:40:54;;;;;;;19.20;13.60;;;21.20;80.10;;;;;;3561707;40;20318;-62
2021/07/24 06:43:19;;;;;;;19.75;13.52;;;21.30;79.70;;;;;;3560679;40;20080;-61
2021/07/24 06:45:48;;;;;;;18.25;14.68;;;21.50;76.20;;;;;;3562346;40;20396;-61
2021/07/24 06:48:13;;;;;;;18.17;13.88;;;21.60;75.60;;;;;;3561044;40;20045;-61
2021/07/24 06:50:39;;;;;;;20.98;14.82;;;21.70;76.30;;;;;;3562345;40;20037;-64
2021/07/24 06:53:04;;;;;;;20.42;13.88;;;21.80;73.60;;;;;;3562424;40;20036;-64
2021/07/24 06:55:30;;;;;;;17.42;13.93;;;21.90;74.00;;;;;;3561548;40;20056;-64
2021/07/24 06:58:01;;;;;;;18.63;13.77;;;22.00;73.10;;;;;;3562088;40;20427;-64
2021/07/24 07:00:29;;;;;;;18.08;13.30;;;22.10;71.00;;;;;;3560345;40;20336;-64
2021/07/24 07:03:01;;;;;;;17.77;12.68;;;22.20;70.90;;;;;;3562020;40;20440;-65
2021/07/24 07:05:28;;;;;;;16.60;13.32;;;22.30;70.70;;;;;;3562005;40;20022;-64
2021/07/24 07:07:55;;;;;;;17.40;13.60;;;22.50;70.00;;;;;;3560865;40;20350;-64
2021/07/24 07:10:21;;;;;;;18.00;13.02;;;22.60;70.60;;;;;;3562129;40;20041;-64
2021/07/24 07:12:48;;;;;;;21.40;13.50;;;22.70;69.20;;;;;;3561865;40;20065;-64
2021/07/24 07:15:14;;;;;;;18.65;13.25;;;22.70;68.40;;;;;;3561973;40;20042;-64
2021/07/24 07:17:40;;;;;;;21.23;13.10;;;22.80;68.70;;;;;;3560073;40;20115;-64
2021/07/24 07:20:07;;;;;;;18.88;12.88;;;23.00;68.10;;;;;;3561604;40;20045;-64
2021/07/24 07:22:33;;;;;;;17.02;12.35;;;23.10;68.40;;;;;;3560582;40;20057;-64
2021/07/24 07:24:59;;;;;;;20.27;12.88;;;23.20;68.00;;;;;;3561651;40;20032;-64
2021/07/24 07:27:25;;;;;;;16.42;12.93;;;23.30;66.40;;;;;;3561331;40;20049;-64
2021/07/24 07:29:51;;;;;;;17.23;12.30;;;23.40;66.30;;;;;;3561707;40;20069;-64
2021/07/24 07:32:17;;;;;;;14.70;11.90;;;23.50;65.60;;;;;;3561064;40;20037;-64
2021/07/24 07:34:43;;;;;;;18.85;13.18;;;23.60;66.30;;;;;;3561456;40;20034;-63
2021/07/24 07:37:08;;;;;;;15.88;12.32;;;23.80;66.40;;;;;;3561110;40;20044;-64
2021/07/24 07:39:34;;;;;;;16.83;12.90;;;23.90;64.40;;;;;;3560299;40;20030;-64
2021/07/24 07:42:00;;;;;;;17.08;12.35;;;23.90;64.60;;;;;;3561134;40;20730;-64
2021/07/24 07:44:28;;;;;;;16.77;11.65;;;24.00;64.20;;;;;;3561029;40;20860;-64
2021/07/24 07:46:54;;;;;;;16.30;11.65;;;24.10;63.30;;;;;;3561241;40;20029;-64
2021/07/24 07:49:20;;;;;;;16.77;12.52;;;24.20;62.60;;;;;;3559951;40;20037;-65
2021/07/24 07:51:45;;;;;;;17.58;12.35;;;24.30;62.40;;;;;;3562604;40;20026;-66
2021/07/24 07:54:11;;;;;;;18.50;11.90;;;24.40;60.80;;;;;;3563011;40;20072;-64
2021/07/24 07:56:37;;;;;;;16.70;12.07;;;24.50;62.10;;;;;;3560868;40;20043;-64
2021/07/24 07:59:04;;;;;;;14.35;12.18;;;24.50;61.50;;;;;;3563033;40;20058;-64
2021/07/24 08:01:29;;;;;;;17.23;11.98;;;24.70;61.40;;;;;;3562410;40;20034;-64
2021/07/24 08:03:55;;;;;;;13.55;11.02;;;24.70;61.70;;;;;;3562824;40;20036;-64
2021/07/24 08:06:21;;;;;;;18.33;12.20;;;24.80;61.10;;;;;;3562789;40;20041;-65
2021/07/24 08:08:46;;;;;;;15.18;12.10;;;24.90;61.80;;;;;;3562299;40;20025;-65
2021/07/24 08:11:13;;;;;;;13.80;10.80;;;24.80;58.80;;;;;;3562077;40;20118;-66
2021/07/24 08:13:39;;;;;;;16.02;11.57;;;24.90;60.00;;;;;;3562607;40;20569;-66
2021/07/24 08:16:13;;;;;;;18.25;11.90;;;25.10;59.50;;;;;;3562674;40;20033;-65
2021/07/24 08:18:39;;;;;;;15.35;11.75;;;25.20;59.10;;;;;;3560653;40;20763;-65
2021/07/24 08:21:04;;;;;;;16.30;11.70;;;25.30;58.90;;;;;;3562772;40;20037;-65
2021/07/24 08:23:30;;;;;;;17.88;12.05;;;25.40;59.80;;;;;;3561762;40;20072;-65
2021/07/24 08:25:55;;;;;;;15.50;11.38;;;25.50;59.90;;;;;;3562152;40;20087;-65
2021/07/24 08:28:25;;;;;;;16.20;11.88;;;25.50;57.00;;;;;;3562940;40;20026;-65
2021/07/24 08:30:51;;;;;;;13.70;11.50;;;25.50;57.40;;;;;;3562738;40;20038;-65
2021/07/24 08:33:16;;;;;;;15.50;11.77;;;25.70;58.30;;;;;;3560658;40;20069;-65
2021/07/24 08:35:42;;;;;;;17.35;11.27;;;25.80;56.60;;;;;;3562539;40;20041;-65
2021/07/24 08:38:08;;;;;;;15.30;11.60;;;25.90;58.10;;;;;;3561642;40;20041;-65
2021/07/24 08:40:34;;;;;;;15.93;11.82;;;26.00;57.10;;;;;;3562289;40;20068;-65
2021/07/24 08:43:07;;;;;;;14.10;10.50;;;26.10;57.20;;;;;;3561001;40;20068;-66
2021/07/24 08:45:33;;;;;;;14.75;10.93;;;26.20;55.10;;;;;;3559725;40;20141;-66
2021/07/24 08:48:00;;;;;;;15.77;10.77;;;26.20;55.70;;;;;;3561323;40;20025;-64
2021/07/24 08:50:26;;;;;;;14.52;10.85;;;26.40;54.90;;;;;;3560969;40;20042;-65
2021/07/24 08:52:56;;;;;;;17.90;10.48;;;26.50;55.20;;;;;;3560488;40;20055;-66
2021/07/24 08:55:22;;;;;;;15.80;10.05;;;26.50;54.30;;;;;;3559724;40;20057;-65
2021/07/24 08:57:51;;;;;;;14.52;10.77;;;26.60;53.50;;;;;;3559953;40;20081;-64
2021/07/24 09:00:18;;;;;;;16.08;10.10;;;26.70;52.60;;;;;;3560568;40;20025;-64
2021/07/24 09:02:46;;;;;;;14.45;9.57;;;26.80;51.20;;;;;;3559517;40;20040;-64
2021/07/24 09:05:16;;;;;;;13.52;10.32;;;26.80;53.40;;;;;;3559177;40;20076;-64
2021/07/24 09:07:51;;;;;;;17.05;10.27;;;27.00;51.60;;;;;;3559899;40;20034;-65
2021/07/24 09:10:20;;;;;;;13.18;10.07;;;27.00;52.10;;;;;;3558437;40;20022;-64
2021/07/24 09:12:48;;;;;;;15.23;11.00;;;27.10;51.10;;;;;;3550499;40;20038;-65
2021/07/24 09:15:16;;;;;;;12.70;10.10;;;27.20;50.50;;;;;;3559739;40;20085;-65
2021/07/24 09:17:42;;;;;;;14.27;10.43;;;27.30;50.30;;;;;;3560033;40;20407;-71
2021/07/24 09:20:09;;;;;;;12.27;9.85;;;27.30;51.50;;;;;;3558335;40;20036;-64
2021/07/24 09:22:39;;;;;;;14.60;10.82;;;27.40;51.80;;;;;;3560286;40;20056;-64
2021/07/24 09:25:14;;;;;;;13.88;9.85;;;27.50;50.30;;;;;;3558905;40;20045;-64
2021/07/24 09:27:45;;;;;;;14.52;11.43;;;27.40;50.60;;;;;;3559866;40;20473;-64
2021/07/24 09:30:34;;;;;;;13.68;9.73;;;27.40;51.30;;;;;;3554475;40;20052;-64
2021/07/24 09:33:04;;;;;;;15.63;9.75;;;27.50;50.80;;;;;;3557281;40;20068;-64
2021/07/24 09:35:40;;;;;;;13.80;9.95;;;27.60;49.90;;;;;;3558834;40;20052;-64
2021/07/24 09:38:13;;;;;;;13.25;9.70;;;27.70;49.00;;;;;;3559739;40;20116;-64
2021/07/24 09:40:41;;;;;;;14.52;9.77;;;27.70;50.00;;;;;;3559231;40;20033;-64
2021/07/24 09:43:31;;;;;;;15.60;10.30;;;27.80;50.60;;;;;;3551383;40;20057;-64
2021/07/24 09:46:11;;;;;;;12.73;9.73;;;27.80;48.70;;;;;;3559641;40;20053;-65
2021/07/24 09:48:38;;;;;;;12.20;9.48;;;27.80;48.00;;;;;;3559425;40;20053;-65
2021/07/24 09:51:04;;;;;;;10.82;9.43;;;27.90;48.40;;;;;;3560147;40;20048;-65
2021/07/24 09:53:39;;;;;;;16.20;9.75;;;27.90;49.50;;;;;;3560836;40;20026;-65
2021/07/24 09:56:05;;;;;;;12.88;9.43;;;28.00;49.30;;;;;;3559747;40;20030;-65
2021/07/24 09:58:31;;;;;;;12.65;9.77;;;28.20;48.90;;;;;;3559383;40;20045;-66
2021/07/24 10:01:05;;;;;;;15.10;10.20;;;28.30;48.60;;;;;;3560671;40;20060;-64
2021/07/24 10:03:34;;;;;;;15.43;10.63;;;28.30;47.80;;;;;;3558673;40;20036;-65
2021/07/24 10:06:02;;;;;;;11.70;9.23;;;28.40;47.30;;;;;;3559864;40;20045;-64
2021/07/24 10:08:30;;;;;;;12.98;9.85;;;28.40;46.50;;;;;;3559377;40;20029;-65
2021/07/24 10:10:56;;;;;;;11.85;9.75;;;28.40;47.10;;;;;;3558481;40;20123;-64
2021/07/24 10:13:23;;;;;;;13.45;10.13;;;28.30;45.80;;;;;;3560067;40;20411;-64
2021/07/24 10:15:48;;;;;;;12.85;9.60;;;28.30;47.90;;;;;;3560429;40;20033;-64
2021/07/24 10:18:15;;;;;;;10.90;9.10;;;28.30;47.80;;;;;;3560105;40;20037;-65
2021/07/24 10:20:43;;;;;;;11.35;9.00;;;28.50;47.20;;;;;;3560311;40;20049;-65
2021/07/24 10:23:10;;;;;;;13.30;8.82;;;28.50;47.30;;;;;;3559098;40;20048;-64
2021/07/24 10:25:47;;;;;;;11.00;9.00;;;28.60;46.80;;;;;;3559183;40;20030;-65
2021/07/24 10:28:18;;;;;;;10.93;8.60;;;28.60;46.10;;;;;;3560339;40;20054;-64
2021/07/24 10:30:44;;;;;;;12.57;9.23;;;28.60;45.40;;;;;;3559352;40;20032;-64
2021/07/24 10:33:11;;;;;;;10.32;8.15;;;28.50;45.40;;;;;;3559463;40;20033;-65
2021/07/24 10:35:41;;;;;;;11.45;8.93;;;28.50;45.30;;;;;;3559764;40;20038;-64
2021/07/24 10:38:31;;;;;;;10.18;9.05;;;28.50;47.20;;;;;;3558085;40;20045;-64
2021/07/24 10:41:21;;;;;;;13.70;8.98;;;28.60;47.80;;;;;;3556429;40;20067;-64
2021/07/24 10:44:00;;;;;;;11.50;9.15;;;28.70;46.80;;;;;;3559332;40;20041;-64
2021/07/24 10:46:44;;;;;;;13.90;9.77;;;28.90;46.00;;;;;;3559583;40;20041;-65
2021/07/24 10:49:22;;;;;;;12.68;9.07;;;28.70;46.30;;;;;;3560451;40;20423;-65
2021/07/24 10:52:07;;;;;;;13.45;8.90;;;28.70;47.00;;;;;;3560892;40;20037;-69
2021/07/24 10:54:53;;;;;;;13.95;9.02;;;28.60;46.90;;;;;;3559107;40;20140;-66
2021/07/24 10:57:44;;;;;;;15.82;9.20;;;28.60;45.90;;;;;;3559135;40;20041;-66
2021/07/24 11:00:19;;;;;;;12.43;8.57;;;28.60;47.40;;;;;;3559764;40;20115;-66
2021/07/24 11:02:46;;;;;;;11.23;8.77;;;28.70;45.60;;;;;;3561035;40;20201;-66
2021/07/24 11:05:29;;;;;;;11.48;9.00;;;28.80;45.00;;;;;;3560903;40;20025;-64
2021/07/24 11:07:56;;;;;;;11.13;8.85;;;29.20;45.70;;;;;;3555738;40;20029;-66
2021/07/24 11:10:22;;;;;;;11.73;9.18;;;29.40;44.90;;;;;;3560877;40;20025;-65
2021/07/24 11:12:48;;;;;;;17.15;8.35;;;29.50;45.20;;;;;;3561219;40;20033;-65
2021/07/24 11:15:19;;;;;;;13.45;9.07;;;29.30;45.60;;;;;;3550667;40;20111;-66
2021/07/24 11:18:05;;;;;;;10.88;8.52;;;29.20;45.00;;;;;;3560051;40;20761;-67
2021/07/24 11:20:45;;;;;;;;;;;29.10;46.80;;;;;;3560339;40;20045;-67
2021/07/24 11:23:10;;;;;;;11.13;8.45;;;29.00;46.60;;;;;;3560153;40;19932;-67
2021/07/24 11:25:37;;;;;;;12.88;9.05;;;29.00;46.90;;;;;;3559269;40;20439;-67
2021/07/24 11:28:03;;;;;;;15.15;8.23;;;29.00;46.20;;;;;;3557978;40;20026;-67
2021/07/24 11:30:29;;;;;;;11.60;9.23;;;28.90;46.40;;;;;;3560056;40;20022;-67
2021/07/24 11:32:56;;;;;;;14.32;9.55;;;29.00;45.90;;;;;;3559996;40;20052;-67
2021/07/24 11:35:31;;;;;;;12.57;8.98;;;28.90;45.60;;;;;;3560004;40;20060;-67
2021/07/24 11:37:57;;;;;;;13.25;9.85;;;28.90;45.80;;;;;;3560050;40;20033;-68
2021/07/24 11:40:29;;;;;;;10.43;8.60;;;29.00;46.10;;;;;;3559788;40;20030;-67
2021/07/24 11:43:02;;;;;;;13.88;9.32;;;28.90;45.10;;;;;;3560240;40;20085;-67
2021/07/24 11:45:31;;;;;;;14.27;9.45;;;29.00;46.40;;;;;;3560019;40;20025;-67
2021/07/24 11:48:13;;;;;;;13.23;9.98;;;29.00;46.90;;;;;;3566284;40;20045;-68
2021/07/24 11:50:43;;;;;;;10.45;8.95;;;29.00;45.20;;;;;;3554207;40;20055;-67
2021/07/24 11:53:13;;;;;;;12.25;9.55;;;29.10;46.50;;;;;;3560119;40;20692;-66
2021/07/24 11:55:42;;;;;;;13.73;8.68;;;29.20;46.40;;;;;;3558678;40;20109;-66
2021/07/24 11:58:17;;;;;;;10.55;8.88;;;29.30;45.60;;;;;;3560232;40;20492;-67
2021/07/24 12:00:52;;;;;;;11.73;8.43;;;29.40;45.30;;;;;;3559617;40;20804;-67
2021/07/24 12:03:30;;;;;;;14.82;9.40;;;29.60;45.80;;;;;;3559781;40;20041;-67
2021/07/24 12:06:12;;;;;;;13.63;9.48;;;29.60;44.80;;;;;;3557939;40;20034;-68
2021/07/24 12:08:41;;;;;;;11.20;9.02;;;29.70;45.60;;;;;;3559178;40;20109;-68
2021/07/24 12:11:17;;;;;;;12.98;9.90;;;29.60;45.00;;;;;;3559797;40;20032;-72
2021/07/24 12:13:44;;;;;;;12.50;9.77;;;29.40;44.90;;;;;;3559582;40;20036;-72
2021/07/24 12:16:12;;;;;;;10.95;9.00;;;29.40;45.90;;;;;;3558860;40;20473;-70
2021/07/24 12:18:37;;;;;;;13.18;9.90;;;29.40;45.40;;;;;;3560251;40;20316;-71
2021/07/24 12:21:17;;;;;;;10.10;8.48;;;29.50;45.20;;;;;;3559490;40;20036;-66
2021/07/24 12:23:57;;;;;;;10.40;8.93;;;29.40;44.40;;;;;;3559891;40;20043;-66
2021/07/24 12:26:28;;;;;;;11.50;8.98;;;29.40;44.80;;;;;;3556852;40;20041;-70
2021/07/24 12:28:56;;;;;;;10.55;9.02;;;29.30;44.80;;;;;;3560107;40;20429;-66
2021/07/24 12:31:29;;;;;;;10.30;8.52;;;29.40;45.80;;;;;;3559663;40;20429;-65
2021/07/24 12:34:02;;;;;;;16.60;8.80;;;29.40;46.40;;;;;;3556373;40;20040;-64
2021/07/24 12:36:29;;;;;;;13.05;8.45;;;29.50;45.10;;;;;;3559703;40;20464;-64
2021/07/24 12:38:57;;;;;;;14.90;9.00;;;29.60;45.40;;;;;;3558052;40;20133;-65
2021/07/24 12:41:33;;;;;;;11.82;8.88;;;29.70;44.90;;;;;;3561384;40;20069;-65
2021/07/24 12:44:09;;;;;;;10.43;8.73;;;29.70;45.30;;;;;;3559001;40;20034;-65
2021/07/24 12:46:36;;;;;;;12.52;8.55;;;29.60;44.40;;;;;;3560446;40;20025;-65
2021/07/24 12:49:06;;;;;;;12.88;9.95;;;29.60;43.70;;;;;;3566088;40;20036;-65